Time;durP1;ratioP1;P1;durP2;ratioP2;P2;SDS_P1;SDS_P2;PMS_P1;PMS_P2;Temp;Humidity;BMP_temperature;BMP_pressure;BME280_temperature;BME280_humidity;BME280_pressure;Samples;Min_cycle;Max_cycle;Signal;HPM_P1;HPM_P2
2024/03/18 00:02:28;;;;;;;3.30;2.53;;;0.20;99.90;-0.60;101134.00;;;;4895442;28;102135;-65
2024/03/18 00:04:56;;;;;;;3.23;2.07;;;-0.30;99.90;-0.60;101139.00;;;;4896912;28;88263;-64
2024/03/18 00:07:22;;;;;;;3.17;2.20;;;-0.20;99.90;-0.60;101135.00;;;;4896105;28;87620;-64
2024/03/18 00:09:49;;;;;;;4.63;2.77;;;-0.30;99.90;-0.70;101125.00;;;;4893972;28;104352;-64
2024/03/18 00:12:15;;;;;;;3.20;2.43;;;-0.30;99.90;-0.70;101136.00;;;;4894788;28;110357;-64
2024/03/18 00:14:43;;;;;;;3.50;2.47;;;-0.20;99.90;-0.60;101126.00;;;;4896152;28;99912;-64
2024/03/18 00:17:10;;;;;;;4.90;2.03;;;-0.30;99.90;-0.60;101137.00;;;;4900268;28;88078;-64
2024/03/18 00:19:36;;;;;;;3.90;2.97;;;-0.30;99.90;-0.60;101128.00;;;;4894760;28;88744;-64
2024/03/18 00:22:03;;;;;;;6.00;2.20;;;-0.20;99.90;-0.60;101134.00;;;;4897364;28;89182;-64
2024/03/18 00:24:28;;;;;;;3.50;2.03;;;-0.20;99.90;-0.60;101120.00;;;;4899226;28;99259;-64
2024/03/18 00:26:54;;;;;;;4.73;3.20;;;-0.20;99.90;-0.60;101127.00;;;;4902659;28;108386;-64
2024/03/18 00:29:19;;;;;;;3.40;2.03;;;-0.20;99.90;-0.60;101126.00;;;;4898111;28;102299;-63
2024/03/18 00:31:46;;;;;;;3.43;2.50;;;-0.20;99.90;-0.60;101127.00;;;;4898204;28;117747;-63
2024/03/18 00:34:13;;;;;;;3.47;2.53;;;-0.20;99.90;-0.60;101121.00;;;;4899054;28;87791;-66
2024/03/18 00:36:39;;;;;;;3.00;2.60;;;-0.20;99.90;-0.60;101127.00;;;;4897079;28;87734;-64
2024/03/18 00:39:06;;;;;;;3.73;2.70;;;-0.30;99.90;-0.70;101119.00;;;;4899704;28;91013;-66
2024/03/18 00:41:44;;;;;;;17.73;2.93;;;-0.20;99.90;-0.70;101123.00;;;;4899839;28;88441;-64
2024/03/18 00:44:10;;;;;;;5.97;2.50;;;-0.40;99.90;-0.80;101116.00;;;;4898167;28;87946;-65
2024/03/18 00:46:36;;;;;;;3.47;2.40;;;-0.40;99.90;-0.80;101121.00;;;;4899452;28;100704;-64
2024/03/18 00:49:02;;;;;;;3.80;2.73;;;-0.40;99.90;-0.80;101124.00;;;;4899845;28;89225;-64
2024/03/18 00:51:28;;;;;;;6.83;2.40;;;-0.50;99.90;-0.90;101117.00;;;;4900636;28;108279;-63
2024/03/18 00:53:54;;;;;;;4.07;2.50;;;1.00;99.90;-0.90;101121.00;;;;4901398;28;109689;-65
2024/03/18 00:56:19;;;;;;;3.67;2.03;;;-0.50;99.90;-0.90;101118.00;;;;4899979;28;87746;-65
2024/03/18 00:58:45;;;;;;;4.47;2.50;;;-0.50;99.90;-1.00;101105.00;;;;4905261;28;118946;-65
2024/03/18 01:01:11;;;;;;;4.73;3.07;;;-2.10;99.90;-1.00;101114.00;;;;4896798;28;117482;-65
2024/03/18 01:03:37;;;;;;;5.40;2.57;;;-0.50;99.90;-1.00;101108.00;;;;4900908;28;110548;-65
2024/03/18 01:06:03;;;;;;;3.07;2.37;;;-0.70;99.90;-1.10;101095.00;;;;4899216;28;93206;-64
2024/03/18 01:08:29;;;;;;;2.87;1.90;;;-0.60;99.90;-1.10;101096.00;;;;4902846;28;108435;-64
2024/03/18 01:10:55;;;;;;;3.40;2.80;;;-0.60;99.90;-1.10;101089.00;;;;4898493;28;117492;-64
2024/03/18 01:13:21;;;;;;;4.50;2.60;;;-0.50;99.90;-1.10;101084.00;;;;4896577;28;109660;-65
2024/03/18 01:15:47;;;;;;;2.07;1.87;;;-0.60;99.90;-1.10;101080.00;;;;4898758;28;109542;-64
2024/03/18 01:18:13;;;;;;;5.03;3.00;;;-0.70;99.90;-1.10;101077.00;;;;4899505;28;88671;-64
2024/03/18 01:20:39;;;;;;;4.40;2.17;;;-0.60;99.90;-1.10;101065.00;;;;4899714;28;96874;-65
2024/03/18 01:23:05;;;;;;;3.70;2.53;;;-0.70;99.90;-1.10;101071.00;;;;4896600;28;109133;-65
2024/03/18 01:25:34;;;;;;;4.20;2.20;;;-0.70;99.90;-1.10;101080.00;;;;4897193;28;92532;-65
2024/03/18 01:28:00;;;;;;;4.00;2.13;;;-0.80;99.90;-1.10;101078.00;;;;4898395;28;88802;-64
2024/03/18 01:30:26;;;;;;;4.57;2.40;;;-0.60;99.90;-1.10;101077.00;;;;4895564;28;104772;-65
2024/03/18 01:32:52;;;;;;;5.30;2.53;;;-0.80;99.90;-1.20;101065.00;;;;4900025;28;109940;-65
2024/03/18 01:35:19;;;;;;;6.07;2.67;;;-0.60;99.90;-1.10;101070.00;;;;4898625;28;108693;-65
2024/03/18 01:37:45;;;;;;;4.20;2.57;;;-0.70;99.90;-1.20;101072.00;;;;4901623;28;89077;-64
2024/03/18 01:40:12;;;;;;;8.70;4.03;;;-0.80;99.90;-1.20;101076.00;;;;4896552;28;89200;-64
2024/03/18 01:42:43;;;;;;;7.33;2.47;;;-0.70;99.90;-1.20;101061.00;;;;4898814;28;89054;-64
2024/03/18 01:45:09;;;;;;;5.33;2.67;;;-0.80;99.90;-1.20;101069.00;;;;4898428;28;95542;-64
2024/03/18 01:47:36;;;;;;;2.17;1.77;;;-0.60;99.90;-1.20;101069.00;;;;4895750;28;88198;-65
2024/03/18 01:50:02;;;;;;;3.57;2.57;;;-0.90;99.90;-1.20;101072.00;;;;4910746;28;88144;-65
2024/03/18 01:52:28;;;;;;;6.37;3.53;;;-0.20;99.90;-1.30;101061.00;;;;4896419;28;104247;-65
2024/03/18 01:54:55;;;;;;;4.83;2.50;;;-0.80;99.90;-1.20;101063.00;;;;4895093;28;87227;-65
2024/03/18 01:57:20;;;;;;;4.10;2.90;;;-0.80;99.90;-1.20;101060.00;;;;4893638;28;88470;-65
2024/03/18 01:59:46;;;;;;;4.70;2.87;;;-0.70;99.90;-1.20;101062.00;;;;4894981;28;117588;-65
2024/03/18 02:02:12;;;;;;;4.23;2.43;;;-0.80;99.90;-1.20;101062.00;;;;4893078;28;109236;-65
2024/03/18 02:04:38;;;;;;;7.80;4.03;;;-0.40;99.90;-1.20;101055.00;;;;4896806;28;88202;-65
2024/03/18 02:07:22;;;;;;;3.70;3.13;;;-0.80;99.90;-1.20;101045.00;;;;4899550;28;117885;-65
2024/03/18 02:09:48;;;;;;;5.50;2.83;;;-0.80;99.90;-1.20;101058.00;;;;4893869;28;88705;-65
2024/03/18 02:12:14;;;;;;;3.43;2.23;;;-0.80;99.90;-1.20;101046.00;;;;4898334;28;87911;-65
2024/03/18 02:14:43;;;;;;;2.87;2.20;;;-0.80;99.90;-1.20;101046.00;;;;4897664;28;88100;-65
2024/03/18 02:17:09;;;;;;;7.70;3.17;;;-0.80;99.90;-1.20;101060.00;;;;4896569;28;88834;-65
2024/03/18 02:19:35;;;;;;;4.50;3.37;;;-0.70;99.90;-1.20;101048.00;;;;4896767;28;87459;-65
2024/03/18 02:22:03;;;;;;;5.90;3.37;;;-0.80;99.90;-1.20;101043.00;;;;4896491;28;110239;-65
2024/03/18 02:24:28;;;;;;;4.37;2.63;;;-0.80;99.90;-1.20;101040.00;;;;4900433;28;87653;-64
2024/03/18 02:26:54;;;;;;;4.63;2.53;;;-0.80;99.90;-1.20;101041.00;;;;4894140;28;97417;-64
2024/03/18 02:29:20;;;;;;;6.07;3.27;;;-0.90;99.90;-1.30;101039.00;;;;4896490;28;104670;-65
2024/03/18 02:31:45;;;;;;;6.37;3.33;;;-0.90;99.90;-1.30;101029.00;;;;4895015;28;108968;-65
2024/03/18 02:34:11;;;;;;;4.93;3.03;;;-0.90;99.90;-1.30;101028.00;;;;4897885;28;109135;-64
2024/03/18 02:36:37;;;;;;;7.57;4.03;;;-0.90;99.90;-1.30;101026.00;;;;4897259;28;117158;-65
2024/03/18 02:39:02;;;;;;;4.83;2.87;;;-0.90;99.90;-1.20;101023.00;;;;4897030;28;117828;-65
2024/03/18 02:41:28;;;;;;;5.80;2.77;;;-0.90;99.90;-1.20;101023.00;;;;4895606;28;111194;-65
2024/03/18 02:43:54;;;;;;;5.30;3.17;;;-0.80;99.90;-1.20;101022.00;;;;4912743;28;107919;-64
2024/03/18 02:46:19;;;;;;;2.97;2.60;;;-0.70;99.90;-1.20;101025.00;;;;4896364;28;115504;-65
2024/03/18 02:48:45;;;;;;;3.93;3.27;;;0.00;99.90;-1.20;101024.00;;;;4896493;28;105465;-65
2024/03/18 02:51:11;;;;;;;5.30;3.00;;;-0.80;99.90;-1.20;101016.00;;;;4901374;28;110753;-64
2024/03/18 02:53:36;;;;;;;3.23;2.63;;;-0.80;99.90;-1.20;101019.00;;;;4898224;28;87719;-65
2024/03/18 02:56:02;;;;;;;4.00;2.67;;;-0.70;99.90;-1.20;101014.00;;;;4899377;28;116752;-65
2024/03/18 02:58:28;;;;;;;6.10;2.93;;;-0.80;99.90;-1.20;101003.00;;;;4900259;28;88369;-65
2024/03/18 03:00:53;;;;;;;3.20;2.80;;;-1.20;99.90;-1.20;101003.00;;;;4896889;28;109712;-65
2024/03/18 03:03:19;;;;;;;3.00;2.57;;;-0.80;99.90;-1.20;100998.00;;;;4894900;28;109352;-65
2024/03/18 03:05:45;;;;;;;3.00;2.10;;;-0.80;99.90;-1.20;101005.00;;;;4895964;28;88231;-65
2024/03/18 03:08:11;;;;;;;3.20;2.57;;;-0.80;99.90;-1.20;101013.00;;;;4893194;28;89765;-64
2024/03/18 03:10:39;;;;;;;3.30;2.47;;;-0.80;99.90;-1.30;101016.00;;;;4894815;28;87864;-65
2024/03/18 03:13:05;;;;;;;4.57;2.77;;;-0.90;99.90;-1.30;101017.00;;;;4896711;28;87820;-64
2024/03/18 03:15:35;;;;;;;3.97;2.80;;;-0.80;99.90;-1.30;101012.00;;;;4898257;28;89698;-65
2024/03/18 03:18:01;;;;;;;5.80;2.80;;;-0.80;99.90;-1.30;101007.00;;;;4897006;28;108159;-64
2024/03/18 03:20:30;;;;;;;5.43;3.17;;;-0.90;99.90;-1.30;100997.00;;;;4895677;28;111662;-64
2024/03/18 03:22:59;;;;;;;7.20;3.00;;;-0.90;99.90;-1.30;101011.00;;;;4894975;28;87724;-65
2024/03/18 03:25:26;;;;;;;4.33;3.40;;;-0.90;99.90;-1.30;101004.00;;;;4897935;28;87939;-65
2024/03/18 03:27:57;;;;;;;4.10;2.90;;;-1.00;99.90;-1.40;101005.00;;;;4895152;28;88120;-66
2024/03/18 03:30:22;;;;;;;7.97;3.43;;;-0.90;99.90;-1.40;101001.00;;;;4894929;28;88150;-65
2024/03/18 03:32:48;;;;;;;6.83;3.07;;;-1.00;99.90;-1.40;101006.00;;;;4900257;28;107928;-65
2024/03/18 03:35:14;;;;;;;3.07;2.73;;;-0.90;99.90;-1.30;100995.00;;;;4896060;28;118712;-65
2024/03/18 03:37:39;;;;;;;5.70;2.90;;;-1.00;99.90;-1.40;100999.00;;;;4895161;28;88058;-65
2024/03/18 03:40:07;;;;;;;5.57;2.70;;;-0.90;99.90;-1.40;100997.00;;;;4893577;28;110251;-65
2024/03/18 03:42:33;;;;;;;3.60;3.30;;;-1.00;99.90;-1.40;100989.00;;;;4899622;28;88092;-65
2024/03/18 03:44:58;;;;;;;8.63;3.23;;;-1.00;99.90;-1.40;100988.00;;;;4898725;28;117756;-65
2024/03/18 03:47:24;;;;;;;3.40;2.63;;;-0.90;99.90;-1.40;100987.00;;;;4897218;28;88098;-66
2024/03/18 03:49:50;;;;;;;4.67;2.93;;;-0.90;99.90;-1.40;100988.00;;;;4895524;28;108528;-65
2024/03/18 03:52:16;;;;;;;7.67;2.93;;;-1.00;99.90;-1.40;100976.00;;;;4899031;28;89408;-66
2024/03/18 03:54:41;;;;;;;5.57;3.87;;;-1.00;99.90;-1.50;100983.00;;;;4899741;28;88159;-66
2024/03/18 03:57:07;;;;;;;4.80;3.63;;;-1.00;99.90;-1.50;100971.00;;;;4897680;28;117001;-66
2024/03/18 03:59:33;;;;;;;3.80;2.87;;;-1.10;99.90;-1.60;100976.00;;;;4897662;28;108946;-66
2024/03/18 04:01:59;;;;;;;4.77;3.10;;;-1.10;99.90;-1.60;100989.00;;;;4896843;28;108909;-66
2024/03/18 04:04:25;;;;;;;5.87;2.97;;;-1.10;99.90;-1.60;100994.00;;;;4898155;28;91879;-66
2024/03/18 04:06:51;;;;;;;3.33;2.83;;;-1.10;99.90;-1.60;100979.00;;;;4898610;28;88888;-66
2024/03/18 04:09:16;;;;;;;6.97;4.47;;;-1.20;99.90;-1.70;100980.00;;;;4903734;28;108772;-66
2024/03/18 04:11:42;;;;;;;6.50;4.33;;;-1.20;99.90;-1.70;100981.00;;;;4906535;28;88136;-66
2024/03/18 04:14:08;;;;;;;7.53;5.03;;;-1.30;99.90;-1.70;100989.00;;;;4902870;28;90486;-66
2024/03/18 04:16:33;;;;;;;63.67;39.90;;;-1.30;99.90;-1.70;100990.00;;;;4900488;28;116944;-66
2024/03/18 04:19:00;;;;;;;98.30;56.83;;;-1.30;99.90;-1.70;100984.00;;;;4902352;28;109817;-66
2024/03/18 04:21:26;;;;;;;54.93;33.77;;;-1.30;99.90;-1.70;100985.00;;;;4898603;28;94714;-66
2024/03/18 04:23:52;;;;;;;23.23;16.70;;;-1.30;99.90;-1.70;100976.00;;;;4893648;28;88679;-66
2024/03/18 04:26:18;;;;;;;14.23;10.70;;;-1.20;99.90;-1.70;100983.00;;;;4894867;28;116328;-66
2024/03/18 04:28:43;;;;;;;9.90;4.50;;;-1.20;99.90;-1.70;100983.00;;;;4901493;28;88967;-66
2024/03/18 04:31:11;;;;;;;5.67;3.93;;;-1.30;99.90;-1.80;100982.00;;;;4902177;28;107277;-66
2024/03/18 04:33:38;;;;;;;5.03;3.83;;;-1.40;99.90;-1.80;100973.00;;;;4898798;28;88757;-67
2024/03/18 04:36:04;;;;;;;5.57;4.03;;;-1.30;99.90;-1.80;100979.00;;;;4900268;28;88254;-67
2024/03/18 04:38:30;;;;;;;16.80;9.73;;;-1.40;99.90;-1.80;100979.00;;;;4901308;28;88079;-66
2024/03/18 04:40:59;;;;;;;8.73;5.23;;;-1.40;99.90;-1.80;100981.00;;;;4896410;28;109597;-66
2024/03/18 04:43:25;;;;;;;7.40;5.27;;;-1.30;99.90;-1.80;100992.00;;;;4881773;28;88208;-66
2024/03/18 04:45:51;;;;;;;6.30;4.17;;;-1.30;99.90;-1.80;100974.00;;;;4880681;28;87730;-67
2024/03/18 04:48:16;;;;;;;5.73;3.23;;;-1.40;99.90;-1.80;100979.00;;;;4874093;28;109998;-67
2024/03/18 04:50:42;;;;;;;7.10;5.53;;;-1.40;99.90;-1.90;100983.00;;;;4878432;28;108303;-67
2024/03/18 04:53:07;;;;;;;8.57;5.13;;;-1.30;99.90;-1.90;100978.00;;;;4878410;28;117974;-67
2024/03/18 04:55:33;;;;;;;9.27;5.10;;;-1.40;99.90;-1.90;100974.00;;;;4880711;28;118213;-67
2024/03/18 04:57:59;;;;;;;5.67;4.33;;;-1.50;99.90;-2.00;100973.00;;;;4879453;28;107969;-67
2024/03/18 05:00:26;;;;;;;7.87;4.60;;;-1.50;99.90;-2.00;100982.00;;;;4879697;28;87827;-67
2024/03/18 05:02:53;;;;;;;7.90;3.47;;;-1.40;99.90;-2.00;100980.00;;;;4878924;28;88983;-67
2024/03/18 05:05:19;;;;;;;7.77;4.07;;;-1.60;99.90;-2.00;100989.00;;;;4882563;28;87924;-67
2024/03/18 05:07:45;;;;;;;8.63;3.60;;;-1.50;99.90;-2.00;100982.00;;;;4879379;28;87903;-67
2024/03/18 05:10:16;;;;;;;5.00;3.17;;;-1.60;99.90;-2.00;100986.00;;;;4881414;28;87134;-67
2024/03/18 05:12:42;;;;;;;6.67;3.97;;;-1.60;99.90;-2.00;100972.00;;;;4871732;28;88148;-67
2024/03/18 05:15:08;;;;;;;4.90;3.60;;;-1.50;99.90;-2.00;100984.00;;;;4890760;28;88075;-67
2024/03/18 05:17:34;;;;;;;7.20;3.73;;;-1.50;99.90;-2.00;100979.00;;;;4878813;28;88665;-67
2024/03/18 05:20:00;;;;;;;4.70;3.53;;;-1.50;99.90;-2.00;100989.00;;;;4878359;28;87762;-67
2024/03/18 05:22:26;;;;;;;5.87;3.13;;;-1.50;99.90;-2.00;100990.00;;;;4877474;28;118266;-68
2024/03/18 05:24:51;;;;;;;8.90;3.77;;;-1.50;99.90;-1.90;100990.00;;;;4879848;28;89300;-67
2024/03/18 05:27:19;;;;;;;19.10;12.17;;;-1.50;99.90;-1.90;100975.00;;;;4878665;28;110930;-67
2024/03/18 05:29:46;;;;;;;28.20;16.97;;;-1.50;99.90;-1.90;100968.00;;;;4882003;28;95929;-67
2024/03/18 05:32:16;;;;;;;16.23;10.20;;;-1.80;99.90;-1.80;100970.00;;;;4881487;28;88131;-67
2024/03/18 05:34:44;;;;;;;12.70;6.67;;;-1.40;99.90;-1.80;100973.00;;;;4880972;28;89281;-67
2024/03/18 05:37:10;;;;;;;7.50;4.83;;;-1.30;99.90;-1.70;100979.00;;;;4876835;28;88420;-67
2024/03/18 05:39:39;;;;;;;7.40;4.77;;;-1.30;99.90;-1.60;100974.00;;;;4878904;28;88334;-67
2024/03/18 05:42:06;;;;;;;8.13;4.53;;;-1.30;99.90;-1.50;100978.00;;;;4878435;28;89388;-67
2024/03/18 05:44:31;;;;;;;6.80;4.90;;;-1.20;99.90;-1.40;100975.00;;;;4888735;28;97739;-66
2024/03/18 05:46:58;;;;;;;5.17;3.63;;;-1.10;99.90;-1.30;100977.00;;;;4876826;28;95640;-66
2024/03/18 05:49:23;;;;;;;7.07;4.73;;;-1.00;99.90;-1.20;100972.00;;;;4876869;28;102259;-66
2024/03/18 05:51:49;;;;;;;12.33;7.57;;;-0.70;99.90;-1.10;100985.00;;;;4876567;28;113470;-66
2024/03/18 05:54:15;;;;;;;13.30;5.70;;;-0.50;99.90;-1.00;100979.00;;;;4875994;28;102346;-66
2024/03/18 05:56:42;;;;;;;6.40;4.73;;;-0.60;99.90;-0.90;100975.00;;;;4878658;28;87906;-66
2024/03/18 05:59:11;;;;;;;5.63;3.57;;;-0.60;99.90;-0.80;100980.00;;;;4877421;28;87274;-66
2024/03/18 06:01:38;;;;;;;9.17;4.73;;;-0.50;99.90;-0.70;100977.00;;;;4874362;28;88649;-66
2024/03/18 06:04:05;;;;;;;8.23;3.87;;;-0.30;99.90;-0.50;100985.00;;;;4877888;28;88638;-66
2024/03/18 06:06:32;;;;;;;5.10;3.97;;;-0.20;99.90;-0.40;100974.00;;;;4850692;28;94301;-66
2024/03/18 06:08:59;;;;;;;8.57;5.10;;;-0.10;99.90;-0.30;100978.00;;;;4874681;28;87846;-65
2024/03/18 06:11:25;;;;;;;15.17;5.50;;;0.10;99.90;-0.20;100979.00;;;;4881304;28;88852;-64
2024/03/18 06:13:51;;;;;;;6.57;2.90;;;0.10;99.90;-0.10;100988.00;;;;4881687;28;89113;-65
2024/03/18 06:16:17;;;;;;;4.03;3.23;;;0.40;99.90;0.10;100973.00;;;;4881965;28;100898;-65
2024/03/18 06:18:43;;;;;;;6.20;3.10;;;0.40;99.90;0.20;100972.00;;;;4880517;28;87915;-65
2024/03/18 06:21:16;;;;;;;5.80;3.40;;;0.40;99.90;0.30;100971.00;;;;4881012;28;89200;-65
2024/03/18 06:23:55;;;;;;;6.43;3.60;;;0.50;99.90;0.50;100976.00;;;;4882759;28;88603;-65
2024/03/18 06:26:21;;;;;;;5.73;2.97;;;0.80;99.90;0.60;100983.00;;;;4881907;28;87739;-65
2024/03/18 06:28:47;;;;;;;5.00;3.87;;;0.80;99.90;0.70;100982.00;;;;4876781;28;92156;-66
2024/03/18 06:31:13;;;;;;;6.83;3.07;;;1.00;99.90;0.80;100988.00;;;;4876195;28;91853;-65
2024/03/18 06:33:39;;;;;;;4.17;2.90;;;2.00;99.90;0.90;100982.00;;;;4878882;28;111203;-65
2024/03/18 06:36:11;;;;;;;7.03;4.13;;;1.20;99.90;1.00;100983.00;;;;4880691;28;87962;-65
2024/03/18 06:38:38;;;;;;;6.57;3.77;;;2.00;99.90;1.10;100985.00;;;;4867386;28;87888;-66
2024/03/18 06:41:06;;;;;;;5.43;4.37;;;1.30;99.90;1.10;100985.00;;;;4880748;28;87941;-66
2024/03/18 06:43:32;;;;;;;5.23;3.13;;;1.40;99.90;1.10;100980.00;;;;4879162;28;89422;-65
2024/03/18 06:45:58;;;;;;;8.53;3.73;;;1.40;99.90;1.10;100974.00;;;;4878595;28;110389;-65
2024/03/18 06:48:23;;;;;;;5.17;2.63;;;1.50;99.90;1.10;100968.00;;;;4876505;28;93000;-66
2024/03/18 06:50:49;;;;;;;2.97;2.67;;;1.40;99.90;1.20;100973.00;;;;4882863;28;92795;-65
2024/03/18 06:53:15;;;;;;;7.20;4.70;;;1.50;99.90;1.30;100969.00;;;;4878834;28;88877;-65
2024/03/18 06:55:43;;;;;;;6.10;3.73;;;1.60;99.90;1.40;100966.00;;;;4882245;28;110049;-64
2024/03/18 06:58:10;;;;;;;6.83;4.30;;;2.40;99.90;1.50;100976.00;;;;4880775;28;87613;-66
2024/03/18 07:00:36;;;;;;;5.63;3.67;;;1.70;99.90;1.70;100972.00;;;;4883675;28;88696;-64
2024/03/18 07:03:02;;;;;;;5.03;3.73;;;1.90;99.90;1.80;100966.00;;;;4881168;28;87990;-64
2024/03/18 07:05:28;;;;;;;8.07;4.53;;;2.00;99.90;1.90;100965.00;;;;4881805;28;87955;-66
2024/03/18 07:07:54;;;;;;;5.93;4.60;;;2.10;99.90;2.00;100971.00;;;;4875006;28;88234;-63
2024/03/18 07:10:20;;;;;;;10.20;3.97;;;2.20;99.90;2.10;100965.00;;;;4876664;28;118927;-65
2024/03/18 07:12:46;;;;;;;4.17;3.77;;;2.30;99.90;2.20;100959.00;;;;4875791;28;90288;-65
2024/03/18 07:15:16;;;;;;;11.57;5.37;;;2.30;99.90;2.30;100954.00;;;;4875833;28;88181;-64
2024/03/18 07:17:43;;;;;;;8.07;2.87;;;2.40;99.90;2.40;100966.00;;;;4877222;28;87823;-64
2024/03/18 07:20:10;;;;;;;7.33;3.83;;;2.60;99.90;2.50;100961.00;;;;4875836;28;91136;-64
2024/03/18 07:22:38;;;;;;;7.90;3.27;;;2.70;99.90;2.60;100953.00;;;;4876434;28;89401;-65
2024/03/18 07:25:06;;;;;;;6.37;3.53;;;2.80;99.90;2.70;100952.00;;;;4880381;28;87811;-64
2024/03/18 07:27:31;;;;;;;6.43;4.10;;;2.90;99.90;2.80;100954.00;;;;4884913;28;87865;-64
2024/03/18 07:29:58;;;;;;;6.50;4.07;;;3.00;99.90;3.00;100957.00;;;;4880702;28;88856;-64
2024/03/18 07:32:27;;;;;;;5.90;3.67;;;3.10;99.90;3.20;100957.00;;;;4879488;28;117136;-65
2024/03/18 07:34:53;;;;;;;5.27;3.83;;;3.30;99.90;3.50;100951.00;;;;4881497;28;87940;-64
2024/03/18 07:37:19;;;;;;;2.03;1.93;;;3.50;99.90;3.70;100961.00;;;;4881906;28;87950;-65
2024/03/18 07:39:46;;;;;;;4.97;3.17;;;3.80;99.90;4.00;100958.00;;;;4878871;28;104042;-66
2024/03/18 07:42:14;;;;;;;3.27;1.87;;;4.00;99.90;4.20;100958.00;;;;4882553;28;115057;-64
2024/03/18 07:44:41;;;;;;;4.10;1.80;;;4.20;99.90;4.30;100944.00;;;;4880287;28;88775;-64
2024/03/18 07:47:10;;;;;;;2.90;1.67;;;4.40;99.90;4.30;100946.00;;;;4882404;28;87646;-64
2024/03/18 07:49:37;;;;;;;1.83;1.63;;;4.50;99.90;4.30;100944.00;;;;4881761;28;100752;-64
2024/03/18 07:52:04;;;;;;;4.37;1.33;;;4.50;99.90;4.30;100951.00;;;;4877498;28;102352;-65
2024/03/18 07:54:33;;;;;;;1.83;1.67;;;4.50;99.90;4.30;100944.00;;;;4878868;28;87869;-64
2024/03/18 07:56:59;;;;;;;2.80;1.30;;;4.50;99.90;4.40;100950.00;;;;4880505;28;100000;-64
2024/03/18 07:59:25;;;;;;;2.43;1.53;;;4.50;99.90;4.60;100941.00;;;;4896421;28;89149;-65
2024/03/18 08:01:51;;;;;;;1.50;1.40;;;4.90;99.90;4.60;100945.00;;;;4878102;28;87855;-64
2024/03/18 08:04:17;;;;;;;1.93;1.60;;;4.90;99.90;4.60;100941.00;;;;4882186;28;110125;-64
2024/03/18 08:06:47;;;;;;;2.03;1.57;;;4.70;99.90;4.70;100933.00;;;;4881613;28;97726;-64
2024/03/18 08:09:19;;;;;;;1.90;1.53;;;5.40;99.90;4.80;100952.00;;;;4877701;28;90354;-66
2024/03/18 08:11:46;;;;;;;2.37;1.93;;;4.90;99.90;4.90;100943.00;;;;4877881;28;118046;-65
2024/03/18 08:14:13;;;;;;;1.73;1.37;;;5.00;99.90;5.20;100943.00;;;;4880596;28;89586;-65
2024/03/18 08:16:39;;;;;;;2.40;1.63;;;5.20;99.80;5.40;100945.00;;;;4883343;28;99099;-66
2024/03/18 08:19:06;;;;;;;3.73;1.67;;;5.40;99.90;5.60;100942.00;;;;4875843;28;87969;-66
2024/03/18 08:21:33;;;;;;;3.10;1.67;;;5.70;99.90;5.80;100942.00;;;;4880076;28;87828;-65
2024/03/18 08:23:59;;;;;;;1.47;1.00;;;5.40;98.10;5.90;100954.00;;;;4878075;28;98308;-65
2024/03/18 08:26:25;;;;;;;3.23;1.47;;;6.00;97.50;6.00;100950.00;;;;4880133;28;88395;-65
2024/03/18 08:28:51;;;;;;;1.80;1.50;;;6.00;96.50;6.00;100945.00;;;;4879589;28;88542;-65
2024/03/18 08:31:16;;;;;;;2.60;2.30;;;6.10;96.40;6.10;100950.00;;;;4892752;28;94087;-66
2024/03/18 08:33:42;;;;;;;3.53;1.33;;;6.20;95.80;6.20;100944.00;;;;4880694;28;109213;-64
2024/03/18 08:36:08;;;;;;;1.83;1.33;;;6.90;96.50;6.60;100936.00;;;;4882126;28;98264;-65
2024/03/18 08:38:34;;;;;;;4.67;3.03;;;6.50;96.40;6.80;100937.00;;;;4881074;28;101915;-65
2024/03/18 08:40:59;;;;;;;2.47;1.37;;;7.30;95.40;7.00;100936.00;;;;4881874;28;97734;-65
2024/03/18 08:43:25;;;;;;;2.57;1.33;;;7.20;94.70;7.20;100932.00;;;;4885993;28;101990;-65
2024/03/18 08:45:52;;;;;;;2.07;1.63;;;7.20;93.50;7.30;100927.00;;;;4890126;28;88549;-65
2024/03/18 08:48:19;;;;;;;5.50;1.63;;;7.40;94.10;7.50;100932.00;;;;4881362;28;88650;-66
2024/03/18 08:50:45;;;;;;;2.83;1.40;;;7.50;92.90;7.60;100934.00;;;;4884673;28;98185;-65
2024/03/18 08:53:14;;;;;;;1.43;1.20;;;7.70;93.00;7.80;100943.00;;;;4878166;28;89348;-65
2024/03/18 08:55:40;;;;;;;1.70;1.47;;;7.90;93.00;8.10;100944.00;;;;4882215;28;87945;-65
2024/03/18 08:58:06;;;;;;;2.17;1.77;;;8.10;92.30;8.30;100939.00;;;;4881149;28;108475;-65
2024/03/18 09:00:32;;;;;;;2.43;1.73;;;8.30;91.00;8.30;100933.00;;;;4879944;28;89264;-65
2024/03/18 09:02:58;;;;;;;7.93;1.70;;;8.30;89.90;8.30;100935.00;;;;4881851;28;94823;-65
2024/03/18 09:05:24;;;;;;;2.50;1.40;;;8.30;87.70;8.30;100930.00;;;;4882629;28;108449;-65
2024/03/18 09:07:49;;;;;;;4.20;1.50;;;8.40;88.20;8.40;100928.00;;;;4886240;28;118265;-64
2024/03/18 09:10:15;;;;;;;1.57;1.47;;;8.40;89.20;8.60;100924.00;;;;4875687;28;117050;-65
2024/03/18 09:12:41;;;;;;;2.87;1.20;;;8.70;89.10;8.90;100926.00;;;;4880162;28;108866;-64
2024/03/18 09:15:08;;;;;;;1.03;1.00;;;8.90;88.00;9.00;100917.00;;;;4883369;28;87057;-64
2024/03/18 09:17:34;;;;;;;2.57;1.47;;;9.10;87.80;9.30;100930.00;;;;4877351;28;102103;-64
2024/03/18 09:20:00;;;;;;;5.77;1.20;;;9.20;86.00;9.60;100937.00;;;;4876761;28;111347;-64
2024/03/18 09:22:25;;;;;;;2.30;1.47;;;9.40;82.60;9.60;100929.00;;;;4882803;28;95357;-65
2024/03/18 09:24:51;;;;;;;5.20;1.97;;;9.60;83.50;9.80;100930.00;;;;4877403;28;108177;-65
2024/03/18 09:27:17;;;;;;;1.97;1.10;;;9.80;82.80;10.00;100938.00;;;;4895470;28;90404;-65
2024/03/18 09:29:43;;;;;;;2.40;1.00;;;10.00;83.00;10.20;100920.00;;;;4884835;28;88328;-65
2024/03/18 09:32:09;;;;;;;1.00;0.70;;;10.20;82.30;10.40;100917.00;;;;4885367;28;87837;-64
2024/03/18 09:34:35;;;;;;;1.93;1.20;;;10.30;80.90;10.60;100929.00;;;;4883327;28;87960;-65
2024/03/18 09:37:00;;;;;;;2.90;1.03;;;10.60;80.40;10.90;100934.00;;;;4883014;28;88081;-65
2024/03/18 09:39:26;;;;;;;2.93;1.23;;;10.70;74.10;10.70;100934.00;;;;4883094;28;118085;-65
2024/03/18 09:41:53;;;;;;;1.33;1.23;;;10.70;73.80;10.70;100928.00;;;;4881681;28;109399;-64
2024/03/18 09:44:20;;;;;;;4.13;1.13;;;10.70;73.20;10.80;100933.00;;;;4880565;28;89598;-64
2024/03/18 09:46:47;;;;;;;1.47;1.00;;;10.80;72.00;11.10;100930.00;;;;4878071;28;96322;-64
2024/03/18 09:49:22;;;;;;;1.47;1.10;;;11.00;74.30;11.50;100923.00;;;;4874883;28;89562;-65
2024/03/18 09:51:49;;;;;;;1.63;1.33;;;11.40;72.00;11.60;100923.00;;;;4878263;28;87914;-65
2024/03/18 09:54:19;;;;;;;2.47;1.37;;;11.50;68.40;11.60;100921.00;;;;4878196;28;108171;-65
2024/03/18 09:57:00;;;;;;;2.77;1.03;;;11.60;66.70;11.70;100902.00;;;;4881433;28;90119;-64
2024/03/18 09:59:25;;;;;;;1.33;0.97;;;11.60;67.00;12.00;100909.00;;;;4880678;28;89227;-64
2024/03/18 10:01:51;;;;;;;1.70;1.27;;;11.70;66.90;12.10;100901.00;;;;4882039;28;109919;-64
2024/03/18 10:04:17;;;;;;;1.17;1.07;;;11.80;63.40;11.80;100906.00;;;;4881412;28;109644;-64
2024/03/18 10:06:42;;;;;;;1.37;0.87;;;11.60;61.40;11.70;100902.00;;;;4873220;28;118634;-64
2024/03/18 10:09:08;;;;;;;2.47;1.10;;;11.50;63.50;11.80;100885.00;;;;4879338;28;87620;-64
2024/03/18 10:11:34;;;;;;;3.70;0.60;;;12.40;64.20;12.10;100890.00;;;;4876284;28;88839;-65
2024/03/18 10:14:00;;;;;;;3.77;1.10;;;11.70;64.70;12.40;100892.00;;;;4884368;28;108964;-64
2024/03/18 10:16:26;;;;;;;1.30;1.03;;;11.90;64.70;12.60;100883.00;;;;4879776;28;90150;-64
2024/03/18 10:18:52;;;;;;;1.43;0.83;;;12.10;63.60;12.90;100886.00;;;;4877910;28;117822;-65
2024/03/18 10:21:18;;;;;;;1.30;0.93;;;12.50;63.80;13.20;100892.00;;;;4878598;28;110637;-64
2024/03/18 10:23:48;;;;;;;2.97;1.00;;;13.10;62.90;13.50;100894.00;;;;4876754;28;87662;-65
2024/03/18 10:26:18;;;;;;;0.70;0.70;;;13.10;63.10;14.00;100898.00;;;;4875518;28;88060;-65
2024/03/18 10:28:45;;;;;;;1.27;1.07;;;13.50;62.90;14.20;100892.00;;;;4877029;28;87866;-65
2024/03/18 10:31:18;;;;;;;1.23;0.87;;;13.80;59.10;14.20;100899.00;;;;4878613;28;88003;-65
2024/03/18 10:33:47;;;;;;;0.53;0.53;;;13.80;58.80;14.40;100897.00;;;;4877325;28;88085;-65
2024/03/18 10:36:26;;;;;;;1.00;0.90;;;14.10;60.70;14.50;100895.00;;;;4880869;28;118481;-65
2024/03/18 10:39:06;;;;;;;0.80;0.70;;;14.20;57.10;14.50;100889.00;;;;4879526;28;89807;-64
2024/03/18 10:41:37;;;;;;;1.00;0.70;;;14.20;55.70;14.50;100889.00;;;;4877253;28;88050;-66
2024/03/18 10:44:18;;;;;;;0.90;0.88;;;14.20;55.60;14.50;100885.00;;;;4876887;28;88302;-65
2024/03/18 10:46:44;;;;;;;1.30;0.90;;;14.20;54.60;14.30;100879.00;;;;4879779;28;103573;-65